createdAt,value
2024-01-30T00:02:17.530Z,-0.77
2024-01-30T00:04:44.923Z,-0.79
2024-01-30T00:07:12.157Z,-0.80
2024-01-30T00:09:39.757Z,-0.82
2024-01-30T00:12:07.280Z,-0.85
2024-01-30T00:14:34.714Z,-0.86
2024-01-30T00:17:01.139Z,-0.88
2024-01-30T00:19:28.112Z,-0.89
2024-01-30T00:21:54.974Z,-0.91
2024-01-30T00:24:21.655Z,-0.94
2024-01-30T00:26:48.776Z,-0.94
2024-01-30T00:29:19.771Z,-0.96
2024-01-30T00:31:46.734Z,-1.00
2024-01-30T00:34:13.746Z,-1.01
2024-01-30T00:36:40.679Z,-1.05
2024-01-30T00:39:09.756Z,-1.08
2024-01-30T00:41:36.536Z,-1.10
2024-01-30T00:44:03.542Z,-1.11
2024-01-30T00:46:30.590Z,-1.13
2024-01-30T00:48:57.627Z,-1.14
2024-01-30T00:51:24.176Z,-1.15
2024-01-30T00:53:51.198Z,-1.17
2024-01-30T00:56:18.954Z,-1.17
2024-01-30T00:58:45.918Z,-1.18
2024-01-30T01:01:15.378Z,-1.19
2024-01-30T01:04:49.739Z,-1.20
2024-01-30T01:07:17.779Z,-1.25
2024-01-30T01:09:45.216Z,-1.28
2024-01-30T01:12:12.572Z,-1.29
2024-01-30T01:14:39.896Z,-1.29
2024-01-30T01:17:07.505Z,-1.30
2024-01-30T01:19:35.035Z,-1.28
2024-01-30T01:22:04.500Z,-1.24
2024-01-30T01:24:35.434Z,-1.21
2024-01-30T01:27:02.981Z,-1.17
2024-01-30T01:29:30.375Z,-1.13
2024-01-30T01:32:01.468Z,-1.10
2024-01-30T01:34:30.797Z,-1.07
2024-01-30T01:36:58.707Z,-1.05
2024-01-30T01:39:26.110Z,-1.03
2024-01-30T01:41:54.044Z,-1.02
2024-01-30T01:44:21.537Z,-1.01
2024-01-30T01:46:48.892Z,-0.98
2024-01-30T01:49:16.511Z,-0.96
2024-01-30T01:51:45.276Z,-0.95
2024-01-30T01:54:12.829Z,-0.91
2024-01-30T01:56:40.253Z,-0.87
2024-01-30T01:59:09.260Z,-0.82
2024-01-30T02:01:40.174Z,-0.77
2024-01-30T02:04:08.785Z,-0.72
2024-01-30T02:06:36.470Z,-0.68
2024-01-30T02:09:05.971Z,-0.65
2024-01-30T02:11:34.797Z,-0.62
2024-01-30T02:14:05.778Z,-0.60
2024-01-30T02:16:33.507Z,-0.60
2024-01-30T02:19:01.556Z,-0.60
2024-01-30T02:21:29.005Z,-0.60
2024-01-30T02:23:56.736Z,-0.59
2024-01-30T02:38:44.002Z,-0.60
2024-01-30T02:41:11.578Z,-0.68
2024-01-30T02:43:39.085Z,-0.72
2024-01-30T02:46:06.917Z,-0.79
2024-01-30T02:48:34.340Z,-0.86
2024-01-30T02:51:01.745Z,-0.94
2024-01-30T02:53:29.093Z,-0.99
2024-01-30T02:55:56.719Z,-1.02
2024-01-30T02:58:25.794Z,-1.02
2024-01-30T03:00:54.290Z,-1.02
2024-01-30T03:03:21.728Z,-1.00
2024-01-30T03:05:51.888Z,-0.99
2024-01-30T03:08:21.327Z,-0.99
2024-01-30T03:10:48.951Z,-0.99
2024-01-30T03:13:16.495Z,-1.00
2024-01-30T03:15:43.862Z,-1.03
2024-01-30T03:18:11.241Z,-1.04
2024-01-30T03:20:38.721Z,-1.05
2024-01-30T03:23:06.788Z,-1.06
2024-01-30T03:25:34.306Z,-1.07
2024-01-30T03:28:01.764Z,-1.09
2024-01-30T03:30:29.176Z,-1.11
2024-01-30T03:32:56.483Z,-1.14
2024-01-30T03:35:23.837Z,-1.16
2024-01-30T03:37:51.195Z,-1.19
2024-01-30T03:40:21.165Z,-1.20
2024-01-30T03:42:48.642Z,-1.21
2024-01-30T03:45:16.745Z,-1.19
2024-01-30T03:47:44.995Z,-1.17
2024-01-30T03:50:12.453Z,-1.15
2024-01-30T03:52:40.478Z,-1.11
2024-01-30T03:55:09.064Z,-1.08
2024-01-30T03:57:36.544Z,-1.10
2024-01-30T04:00:06.265Z,-1.12
2024-01-30T04:02:39.721Z,-1.15
2024-01-30T04:05:07.813Z,-1.20
2024-01-30T04:07:35.354Z,-1.22
2024-01-30T04:10:07.022Z,-1.23
2024-01-30T04:12:34.686Z,-1.22
2024-01-30T04:15:04.324Z,-1.22
2024-01-30T04:17:31.806Z,-1.19
2024-01-30T04:19:59.423Z,-1.16
2024-01-30T04:22:26.838Z,-1.13
2024-01-30T04:24:54.318Z,-1.11
2024-01-30T04:27:21.917Z,-1.09
2024-01-30T04:29:50.117Z,-1.06
2024-01-30T04:32:17.743Z,-0.99
2024-01-30T04:34:45.517Z,-0.96
2024-01-30T04:37:12.996Z,-0.95
2024-01-30T04:39:40.348Z,-0.96
2024-01-30T04:42:09.687Z,-1.00
2024-01-30T04:44:37.699Z,-1.00
2024-01-30T04:47:07.205Z,-0.99
2024-01-30T04:49:34.856Z,-1.02
2024-01-30T04:52:03.378Z,-1.06
2024-01-30T04:54:30.682Z,-1.07
2024-01-30T04:56:58.035Z,-1.09
2024-01-30T04:59:25.845Z,-1.08
2024-01-30T05:01:54.552Z,-1.08
2024-01-30T05:04:23.320Z,-1.09
2024-01-30T05:06:50.802Z,-1.09
2024-01-30T05:09:18.741Z,-1.11
2024-01-30T05:11:46.242Z,-1.12
2024-01-30T05:14:16.127Z,-1.13
2024-01-30T05:16:47.884Z,-1.15
2024-01-30T05:19:15.768Z,-1.16
2024-01-30T05:21:43.206Z,-1.17
2024-01-30T05:24:13.747Z,-1.17
2024-01-30T05:26:41.228Z,-1.18
2024-01-30T05:29:09.012Z,-1.19
2024-01-30T05:31:36.571Z,-1.23
2024-01-30T05:34:04.121Z,-1.30
2024-01-30T05:36:31.540Z,-1.32
2024-01-30T05:38:58.825Z,-1.31
2024-01-30T05:41:26.403Z,-1.29
2024-01-30T05:43:53.725Z,-1.26
2024-01-30T05:46:24.311Z,-1.24
2024-01-30T05:48:52.902Z,-1.23
2024-01-30T05:51:20.645Z,-1.23
2024-01-30T05:53:52.519Z,-1.24
2024-01-30T05:56:19.817Z,-1.26
2024-01-30T05:58:47.517Z,-1.25
2024-01-30T06:01:16.735Z,-1.25
2024-01-30T06:03:44.660Z,-1.26
2024-01-30T06:12:06.177Z,-1.25
2024-01-30T06:14:33.588Z,-1.29
2024-01-30T06:17:00.382Z,-1.26
2024-01-30T06:19:27.445Z,-1.22
2024-01-30T06:21:54.536Z,-1.17
2024-01-30T06:24:21.408Z,-1.12
2024-01-30T06:26:48.158Z,-1.08
2024-01-30T06:29:17.145Z,-1.04
2024-01-30T06:31:45.956Z,-1.00
2024-01-30T06:34:12.980Z,-0.97
2024-01-30T06:36:39.744Z,-0.94
2024-01-30T06:39:06.698Z,-0.92
2024-01-30T06:41:33.684Z,-0.89
2024-01-30T06:44:04.075Z,-0.87
2024-01-30T06:46:31.185Z,-0.82
2024-01-30T06:48:58.255Z,-0.78
2024-01-30T06:51:25.227Z,-0.73
2024-01-30T06:53:52.256Z,-0.67
2024-01-30T06:56:22.191Z,-0.61
2024-01-30T06:58:49.723Z,-0.55
2024-01-30T07:01:17.972Z,-0.48
2024-01-30T07:03:44.739Z,-0.43
2024-01-30T07:06:11.582Z,-0.39
2024-01-30T07:08:39.468Z,-0.37
2024-01-30T07:11:06.659Z,-0.34
2024-01-30T07:13:35.567Z,-0.28
2024-01-30T07:16:02.424Z,-0.21
2024-01-30T07:18:29.726Z,-0.17
2024-01-30T07:20:57.411Z,-0.16
2024-01-30T07:23:24.597Z,-0.15
2024-01-30T07:25:51.668Z,-0.13
2024-01-30T07:28:19.037Z,-0.09
2024-01-30T07:30:45.953Z,-0.06
2024-01-30T07:33:12.616Z,-0.04
2024-01-30T07:35:39.363Z,-0.02
2024-01-30T07:38:06.154Z,-0.01
2024-01-30T07:40:33.879Z,0.03
2024-01-30T07:43:01.543Z,0.10
2024-01-30T07:45:33.071Z,0.17
2024-01-30T07:48:00.798Z,0.22
2024-01-30T07:50:27.690Z,0.24
2024-01-30T07:53:00.139Z,0.24
2024-01-30T07:55:31.591Z,0.24
2024-01-30T07:57:59.284Z,0.25
2024-01-30T08:00:26.023Z,0.29
2024-01-30T08:02:56.057Z,0.36
2024-01-30T08:05:23.823Z,0.40
2024-01-30T08:07:51.634Z,0.41
2024-01-30T08:10:21.329Z,0.43
2024-01-30T08:12:49.715Z,0.47
2024-01-30T08:15:16.847Z,0.52
2024-01-30T08:17:45.221Z,0.56
2024-01-30T08:20:13.366Z,0.58
2024-01-30T08:22:43.348Z,0.60
2024-01-30T08:25:10.953Z,0.59
2024-01-30T08:27:38.975Z,0.63
2024-01-30T08:30:07.281Z,0.68
2024-01-30T08:32:35.595Z,0.72
2024-01-30T08:35:07.124Z,0.75
2024-01-30T08:37:33.985Z,0.80
2024-01-30T08:40:02.597Z,0.86
2024-01-30T08:42:30.547Z,0.91
2024-01-30T08:44:57.206Z,0.94
2024-01-30T08:47:23.716Z,0.96
2024-01-30T08:49:51.428Z,0.99
2024-01-30T08:52:18.334Z,1.05
2024-01-30T08:54:46.320Z,1.13
2024-01-30T08:57:13.058Z,1.16
2024-01-30T08:59:40.483Z,1.22
2024-01-30T09:02:12.370Z,1.26
2024-01-30T09:04:41.133Z,1.32
2024-01-30T09:07:10.539Z,1.38
2024-01-30T09:09:43.445Z,1.45
2024-01-30T09:12:12.102Z,1.51
2024-01-30T09:14:40.002Z,1.53
2024-01-30T09:17:07.484Z,1.56
2024-01-30T09:19:34.507Z,1.64
2024-01-30T09:22:01.628Z,1.70
2024-01-30T09:24:28.521Z,1.73
2024-01-30T09:26:55.143Z,1.72
2024-01-30T09:29:22.251Z,1.74
2024-01-30T09:31:48.926Z,1.79
2024-01-30T09:34:16.189Z,1.81
2024-01-30T09:36:42.893Z,1.86
2024-01-30T09:39:09.572Z,1.94
2024-01-30T09:41:57.073Z,2.05
2024-01-30T09:44:24.364Z,2.12
2024-01-30T09:46:51.909Z,2.13
2024-01-30T09:49:20.951Z,2.17
2024-01-30T09:51:48.754Z,2.19
2024-01-30T09:54:15.979Z,2.18
2024-01-30T09:56:42.563Z,2.20
2024-01-30T09:59:09.428Z,2.22
2024-01-30T10:01:36.619Z,2.22
2024-01-30T10:04:04.157Z,2.23
2024-01-30T10:06:33.025Z,2.25
2024-01-30T10:08:59.664Z,2.31
2024-01-30T10:11:26.246Z,2.46
2024-01-30T10:13:53.884Z,2.70
2024-01-30T10:16:21.033Z,3.11
2024-01-30T10:18:48.145Z,3.65
2024-01-30T10:21:14.891Z,4.24
2024-01-30T10:23:42.735Z,4.81
2024-01-30T10:26:10.323Z,5.36
2024-01-30T10:28:37.495Z,5.85
2024-01-30T10:31:06.708Z,6.27
2024-01-30T10:33:34.751Z,6.67
2024-01-30T10:36:03.070Z,7.06
2024-01-30T10:38:31.144Z,7.40
2024-01-30T10:40:58.990Z,7.72
2024-01-30T10:43:34.608Z,8.02
2024-01-30T10:46:18.300Z,8.32
2024-01-30T10:48:47.525Z,8.51
2024-01-30T10:51:14.861Z,8.64
2024-01-30T10:53:41.991Z,8.66
2024-01-30T10:56:09.898Z,8.48
2024-01-30T10:58:37.367Z,8.37
2024-01-30T11:01:05.006Z,8.38
2024-01-30T11:03:35.293Z,8.46
2024-01-30T11:06:03.001Z,8.63
2024-01-30T11:08:32.602Z,8.75
2024-01-30T11:11:00.220Z,8.79
2024-01-30T11:13:30.406Z,8.84
2024-01-30T11:16:05.468Z,8.85
2024-01-30T11:18:36.465Z,8.90
2024-01-30T11:21:05.185Z,9.00
2024-01-30T11:35:10.477Z,8.48
2024-01-30T11:37:38.727Z,8.30
2024-01-30T11:40:07.288Z,8.12
2024-01-30T11:42:35.792Z,7.96
2024-01-30T11:45:04.259Z,7.91
2024-01-30T11:47:32.315Z,7.84
2024-01-30T11:50:01.299Z,7.76
2024-01-30T11:52:29.112Z,7.69
2024-01-30T11:54:56.615Z,7.58
2024-01-30T11:57:24.151Z,7.48
2024-01-30T11:59:51.547Z,7.30
2024-01-30T12:02:19.081Z,7.16
2024-01-30T12:04:46.638Z,7.06
2024-01-30T12:07:18.707Z,7.00
2024-01-30T12:09:58.165Z,7.00
2024-01-30T12:12:26.718Z,7.03
2024-01-30T12:14:54.448Z,7.06
2024-01-30T12:17:30.426Z,7.10
2024-01-30T12:20:12.331Z,7.16
2024-01-30T12:22:44.996Z,7.19
2024-01-30T12:25:17.625Z,7.24
2024-01-30T12:27:48.642Z,7.27
2024-01-30T12:30:16.625Z,7.36
2024-01-30T12:32:45.314Z,7.46
2024-01-30T12:35:14.324Z,7.46
2024-01-30T12:37:42.077Z,7.37
2024-01-30T12:40:10.883Z,7.27
2024-01-30T12:42:38.741Z,7.17
2024-01-30T12:45:07.042Z,7.08
2024-01-30T12:47:34.458Z,6.92
2024-01-30T12:50:02.067Z,6.75
2024-01-30T12:52:30.241Z,6.61
2024-01-30T12:54:57.798Z,6.52
2024-01-30T12:57:25.338Z,6.40
2024-01-30T12:59:55.626Z,6.27
2024-01-30T13:02:23.880Z,6.15
2024-01-30T13:04:51.475Z,6.00
2024-01-30T13:07:19.499Z,5.87
2024-01-30T13:09:47.079Z,5.69
2024-01-30T13:12:14.394Z,5.46
2024-01-30T13:14:41.793Z,5.27
2024-01-30T13:17:09.233Z,5.16
2024-01-30T13:22:01.407Z,5.04
2024-01-30T13:24:28.317Z,4.91
2024-01-30T13:26:56.062Z,4.73
2024-01-30T13:29:23.993Z,4.54
2024-01-30T13:31:50.684Z,4.39
2024-01-30T13:34:18.511Z,4.22
2024-01-30T13:36:46.513Z,4.07
2024-01-30T13:39:13.287Z,3.97
2024-01-30T13:41:39.993Z,3.88
2024-01-30T13:44:06.723Z,3.81
2024-01-30T13:46:34.972Z,3.73
2024-01-30T13:49:02.302Z,3.61
2024-01-30T13:51:29.516Z,3.47
2024-01-30T13:53:56.461Z,3.39
2024-01-30T13:56:24.313Z,3.31
2024-01-30T13:58:51.602Z,3.25
2024-01-30T14:01:18.689Z,3.21
2024-01-30T14:03:46.657Z,3.18
2024-01-30T14:06:13.836Z,3.16
2024-01-30T14:08:43.817Z,3.15
2024-01-30T14:11:12.209Z,3.11
2024-01-30T14:13:39.557Z,3.09
2024-01-30T14:16:10.186Z,3.07
2024-01-30T14:18:38.499Z,3.02
2024-01-30T14:21:07.261Z,2.97
2024-01-30T14:23:34.946Z,2.92
2024-01-30T14:26:01.961Z,2.87
2024-01-30T14:28:28.974Z,2.84
2024-01-30T14:30:58.562Z,2.80
2024-01-30T14:33:26.366Z,2.75
2024-01-30T14:35:53.242Z,2.69
2024-01-30T14:38:20.524Z,2.64
2024-01-30T14:40:47.592Z,2.61
2024-01-30T14:43:14.682Z,2.59
2024-01-30T14:45:43.175Z,2.58
2024-01-30T14:48:09.891Z,2.57
2024-01-30T14:50:36.687Z,2.55
2024-01-30T14:53:04.256Z,2.53
2024-01-30T14:55:33.598Z,2.50
2024-01-30T14:58:02.769Z,2.46
2024-01-30T15:00:29.775Z,2.42
2024-01-30T15:02:56.985Z,2.34
2024-01-30T15:05:24.263Z,2.29
2024-01-30T15:07:53.362Z,2.25
2024-01-30T15:10:20.154Z,2.21
2024-01-30T15:12:46.985Z,2.16
2024-01-30T15:15:14.330Z,2.11
2024-01-30T15:17:43.557Z,2.06
2024-01-30T15:20:10.453Z,2.00
2024-01-30T15:22:40.894Z,1.94
2024-01-30T15:25:08.234Z,1.89
2024-01-30T15:27:39.097Z,1.83
2024-01-30T15:30:10.340Z,1.77
2024-01-30T15:32:44.430Z,1.72
2024-01-30T15:35:14.525Z,1.66
2024-01-30T15:37:43.564Z,1.60
2024-01-30T15:40:11.887Z,1.55
2024-01-30T15:42:38.678Z,1.51
2024-01-30T15:45:06.079Z,1.46
2024-01-30T15:47:33.994Z,1.41
2024-01-30T15:50:00.849Z,1.36
2024-01-30T15:52:28.260Z,1.32
2024-01-30T15:54:54.990Z,1.26
2024-01-30T15:57:22.737Z,1.21
2024-01-30T15:59:52.256Z,1.15
2024-01-30T16:02:21.034Z,1.11
2024-01-30T16:04:50.139Z,1.09
2024-01-30T16:07:17.242Z,1.08
2024-01-30T16:09:44.106Z,1.07
2024-01-30T16:12:10.774Z,1.04
2024-01-30T16:14:38.069Z,1.02
2024-01-30T16:17:04.777Z,0.99
2024-01-30T16:19:33.611Z,0.95
2024-01-30T16:22:04.514Z,0.91
2024-01-30T16:24:31.808Z,0.88
2024-01-30T16:27:01.912Z,0.84
2024-01-30T16:29:28.980Z,0.81
2024-01-30T16:31:56.239Z,0.80
2024-01-30T16:34:23.266Z,0.78
2024-01-30T16:36:51.302Z,0.77
2024-01-30T16:39:17.946Z,0.77
2024-01-30T16:41:44.920Z,0.78
2024-01-30T16:44:12.411Z,0.79
2024-01-30T16:46:40.059Z,0.80
2024-01-30T16:49:06.792Z,0.82
2024-01-30T16:51:33.483Z,0.83
2024-01-30T16:54:01.315Z,0.84
2024-01-30T16:56:28.330Z,0.85
2024-01-30T16:58:55.568Z,0.86
2024-01-30T17:01:23.219Z,0.88
2024-01-30T17:03:50.567Z,0.89
2024-01-30T17:06:17.314Z,0.88
2024-01-30T17:08:44.851Z,0.88
2024-01-30T17:11:13.427Z,0.86
2024-01-30T17:13:42.220Z,0.84
2024-01-30T17:16:10.162Z,0.83
2024-01-30T17:18:36.863Z,0.82
2024-01-30T17:21:03.782Z,0.81
2024-01-30T17:23:34.184Z,0.80
2024-01-30T17:26:03.321Z,0.79
2024-01-30T17:28:32.974Z,0.79
2024-01-30T17:31:00.114Z,0.79
2024-01-30T17:33:28.308Z,0.80
2024-01-30T17:35:55.440Z,0.81
2024-01-30T17:38:24.594Z,0.82
2024-01-30T17:41:02.528Z,0.82
2024-01-30T17:43:36.840Z,0.81
2024-01-30T17:46:04.683Z,0.81
2024-01-30T17:48:34.798Z,0.80
2024-01-30T17:51:03.709Z,0.78
2024-01-30T17:53:30.755Z,0.75
2024-01-30T17:56:02.030Z,0.73
2024-01-30T17:58:29.244Z,0.70
2024-01-30T18:00:58.412Z,0.67
2024-01-30T18:03:25.471Z,0.66
2024-01-30T18:05:55.275Z,0.65
2024-01-30T18:08:26.337Z,0.65
2024-01-30T18:10:55.470Z,0.64
2024-01-30T18:13:24.372Z,0.62
2024-01-30T18:15:55.269Z,0.61
2024-01-30T18:18:30.338Z,0.61
2024-01-30T18:21:01.372Z,0.61
2024-01-30T18:23:31.173Z,0.61
2024-01-30T18:26:02.988Z,0.61
2024-01-30T18:28:32.628Z,0.61
2024-01-30T18:31:03.690Z,0.59
2024-01-30T18:33:33.299Z,0.59
2024-01-30T18:36:10.074Z,0.58
2024-01-30T18:38:39.441Z,0.58
2024-01-30T18:41:09.699Z,0.57
2024-01-30T18:43:39.594Z,0.57
2024-01-30T18:46:09.523Z,0.57
2024-01-30T18:48:39.657Z,0.57
2024-01-30T18:51:09.155Z,0.58
2024-01-30T18:53:38.127Z,0.58
2024-01-30T18:56:08.352Z,0.58
2024-01-30T18:58:37.694Z,0.56
2024-01-30T19:01:07.169Z,0.56
2024-01-30T19:03:36.258Z,0.57
2024-01-30T19:06:06.135Z,0.56
2024-01-30T19:08:35.332Z,0.56
2024-01-30T19:11:05.138Z,0.56
2024-01-30T19:13:34.588Z,0.55
2024-01-30T19:16:04.319Z,0.53
2024-01-30T19:18:36.266Z,0.51
2024-01-30T19:21:05.961Z,0.49
2024-01-30T19:23:35.381Z,0.48
2024-01-30T19:26:06.630Z,0.47
2024-01-30T19:28:36.882Z,0.46
2024-01-30T19:31:06.467Z,0.47
2024-01-30T19:33:35.517Z,0.48
2024-01-30T19:36:06.518Z,0.48
2024-01-30T19:38:36.712Z,0.48
2024-01-30T19:41:07.242Z,0.48
2024-01-30T19:43:36.759Z,0.48
2024-01-30T19:46:06.138Z,0.49
2024-01-30T19:48:35.034Z,0.50
2024-01-30T19:51:05.879Z,0.53
2024-01-30T19:53:36.525Z,0.55
2024-01-30T19:56:06.915Z,0.58
2024-01-30T19:58:36.595Z,0.61
2024-01-30T20:01:06.495Z,0.64
2024-01-30T20:03:36.485Z,0.68
2024-01-30T20:06:05.824Z,0.72
2024-01-30T20:08:36.094Z,0.77
2024-01-30T20:11:17.199Z,0.82
2024-01-30T20:13:46.247Z,0.87
2024-01-30T20:16:16.643Z,0.92
2024-01-30T20:18:45.710Z,0.95
2024-01-30T20:21:14.960Z,0.97
2024-01-30T20:23:43.614Z,0.98
2024-01-30T20:26:12.618Z,1.00
2024-01-30T20:28:41.103Z,1.02
2024-01-30T20:31:09.714Z,1.05
2024-01-30T20:33:37.838Z,1.08
2024-01-30T20:36:08.088Z,1.09
2024-01-30T20:38:36.925Z,1.11
2024-01-30T20:41:09.486Z,1.12
2024-01-30T20:43:36.594Z,1.13
2024-01-30T20:46:04.801Z,1.14
2024-01-30T20:48:31.950Z,1.15
2024-01-30T20:50:58.806Z,1.19
2024-01-30T20:53:25.734Z,1.22
2024-01-30T20:55:53.188Z,1.25
2024-01-30T20:58:20.347Z,1.28
2024-01-30T21:00:47.963Z,1.28
2024-01-30T21:03:15.642Z,1.29
2024-01-30T21:05:43.240Z,1.29
2024-01-30T21:08:11.418Z,1.30
2024-01-30T21:10:38.974Z,1.30
2024-01-30T21:13:05.679Z,1.29
2024-01-30T21:15:32.466Z,1.28
2024-01-30T21:17:59.145Z,1.29
2024-01-30T21:20:26.124Z,1.27
2024-01-30T21:22:52.997Z,1.26
2024-01-30T21:25:19.872Z,1.25
2024-01-30T21:27:46.667Z,1.25
2024-01-30T21:30:14.340Z,1.24
2024-01-30T21:32:41.149Z,1.25
2024-01-30T21:35:08.890Z,1.26
2024-01-30T21:37:35.780Z,1.27
2024-01-30T21:40:04.445Z,1.26
2024-01-30T21:42:31.469Z,1.25
2024-01-30T21:44:58.716Z,1.24
2024-01-30T21:47:25.602Z,1.24
2024-01-30T21:49:53.635Z,1.25
2024-01-30T21:52:20.181Z,1.26
2024-01-30T21:54:47.097Z,1.27
2024-01-30T21:57:13.865Z,1.28
2024-01-30T21:59:42.443Z,1.30
2024-01-30T22:02:09.576Z,1.31
2024-01-30T22:04:37.954Z,1.31
2024-01-30T22:07:05.019Z,1.30
2024-01-30T22:09:31.984Z,1.30
2024-01-30T22:11:58.767Z,1.30
2024-01-30T22:14:26.214Z,1.29
2024-01-30T22:16:53.857Z,1.28
2024-01-30T22:19:20.579Z,1.27
2024-01-30T22:21:48.085Z,1.27
2024-01-30T22:24:15.020Z,1.27
2024-01-30T22:26:42.620Z,1.27
2024-01-30T22:29:10.412Z,1.28
2024-01-30T22:31:37.577Z,1.28
2024-01-30T22:34:04.790Z,1.27
2024-01-30T22:36:32.050Z,1.27
2024-01-30T22:38:58.588Z,1.26
2024-01-30T22:41:25.637Z,1.25
2024-01-30T22:43:53.444Z,1.23
2024-01-30T22:46:21.159Z,1.22
2024-01-30T22:48:48.300Z,1.22
2024-01-30T22:51:16.232Z,1.20
2024-01-30T22:53:47.917Z,1.19
2024-01-30T22:56:15.869Z,1.19
2024-01-30T22:58:42.644Z,1.19
2024-01-30T23:01:09.317Z,1.19
2024-01-30T23:03:36.274Z,1.20
2024-01-30T23:06:03.243Z,1.19
2024-01-30T23:08:30.459Z,1.19
2024-01-30T23:10:57.343Z,1.20
2024-01-30T23:13:24.419Z,1.21
2024-01-30T23:15:51.816Z,1.22
2024-01-30T23:18:21.497Z,1.24
2024-01-30T23:20:48.451Z,1.26
2024-01-30T23:23:15.553Z,1.27
2024-01-30T23:25:42.427Z,1.28
2024-01-30T23:28:10.485Z,1.30
2024-01-30T23:30:37.300Z,1.30
2024-01-30T23:33:06.667Z,1.30
2024-01-30T23:35:34.585Z,1.29
2024-01-30T23:38:01.480Z,1.29
2024-01-30T23:40:28.579Z,1.29
2024-01-30T23:42:56.018Z,1.30
2024-01-30T23:45:23.436Z,1.31
2024-01-30T23:47:51.650Z,1.32
2024-01-30T23:50:18.426Z,1.35
2024-01-30T23:52:46.417Z,1.36
2024-01-30T23:55:13.449Z,1.37
2024-01-30T23:57:40.168Z,1.39
